createdAt,value
2017-05-22T00:00:21.435Z,0
2017-05-22T00:01:35.328Z,0
2017-05-22T00:02:49.893Z,0
2017-05-22T00:04:03.816Z,0
2017-05-22T00:05:17.417Z,0
2017-05-22T00:06:31.318Z,0
2017-05-22T00:07:45.636Z,0
2017-05-22T00:09:00.237Z,0
2017-05-22T00:10:14.155Z,0
2017-05-22T00:11:27.731Z,0
2017-05-22T00:12:41.378Z,0
2017-05-22T00:13:55.369Z,0
2017-05-22T00:15:09.584Z,0
2017-05-22T00:16:23.761Z,0
2017-05-22T00:17:37.337Z,0
2017-05-22T00:18:51.225Z,0
2017-05-22T00:20:05.181Z,0
2017-05-22T00:21:19.699Z,0
2017-05-22T00:22:33.754Z,0
2017-05-22T00:23:47.326Z,0
2017-05-22T00:25:01.015Z,0
2017-05-22T00:26:15.305Z,0
2017-05-22T00:27:29.138Z,0
2017-05-22T00:28:42.681Z,0
2017-05-22T00:29:56.343Z,0
2017-05-22T00:31:10.561Z,0
2017-05-22T00:32:24.456Z,0
2017-05-22T00:33:38.656Z,0
2017-05-22T00:34:52.212Z,0
2017-05-22T00:36:05.780Z,0
2017-05-22T00:37:34.182Z,0
2017-05-22T00:38:47.740Z,0
2017-05-22T00:40:01.623Z,0
2017-05-22T00:41:15.261Z,0
2017-05-22T00:42:29.175Z,0
2017-05-22T00:43:42.810Z,0
2017-05-22T00:44:56.385Z,0
2017-05-22T00:46:10.307Z,0
2017-05-22T00:47:23.958Z,0
2017-05-22T00:48:37.511Z,0
2017-05-22T00:49:51.144Z,0
2017-05-22T00:51:04.684Z,0
2017-05-22T00:52:18.622Z,0
2017-05-22T00:53:32.856Z,0
2017-05-22T00:54:47.054Z,0
2017-05-22T00:56:00.700Z,0
2017-05-22T00:57:14.542Z,0
2017-05-22T00:58:28.471Z,0
2017-05-22T00:59:42.012Z,0
2017-05-22T01:00:56.272Z,0
2017-05-22T01:02:09.814Z,0
2017-05-22T01:03:24.162Z,0
2017-05-22T01:04:38.125Z,0
2017-05-22T01:05:51.696Z,0
2017-05-22T01:07:05.433Z,0
2017-05-22T01:08:19.120Z,0
2017-05-22T01:09:33.064Z,0
2017-05-22T01:10:46.944Z,0
2017-05-22T01:12:00.805Z,0
2017-05-22T01:13:14.485Z,0
2017-05-22T01:14:28.071Z,0
2017-05-22T01:15:41.626Z,0
2017-05-22T01:16:55.909Z,0
2017-05-22T01:18:09.501Z,0
2017-05-22T01:19:23.153Z,0
2017-05-22T01:20:37.036Z,0
2017-05-22T01:21:50.703Z,0
2017-05-22T01:23:04.576Z,0
2017-05-22T01:24:18.247Z,0
2017-05-22T01:25:31.787Z,0
2017-05-22T01:26:45.734Z,0
2017-05-22T01:28:00.095Z,0
2017-05-22T01:29:14.073Z,0
2017-05-22T01:30:27.616Z,0
2017-05-22T01:31:41.524Z,0
2017-05-22T01:32:55.136Z,0
2017-05-22T01:34:09.391Z,0
2017-05-22T01:35:23.245Z,0
2017-05-22T01:36:37.165Z,0
2017-05-22T01:37:50.726Z,0
2017-05-22T01:39:04.675Z,0
2017-05-22T01:40:18.653Z,0
2017-05-22T01:41:32.544Z,0
2017-05-22T01:42:46.203Z,0
2017-05-22T01:44:00.140Z,0
2017-05-22T01:45:13.807Z,0
2017-05-22T01:46:27.713Z,0
2017-05-22T01:47:41.647Z,0
2017-05-22T01:48:55.424Z,0
2017-05-22T01:50:08.977Z,0
2017-05-22T01:51:22.863Z,0
2017-05-22T01:52:36.409Z,0
2017-05-22T01:53:50.672Z,0
2017-05-22T01:55:04.706Z,0
2017-05-22T01:56:18.615Z,0
2017-05-22T01:57:32.353Z,0
2017-05-22T01:58:45.925Z,0
2017-05-22T02:00:00.151Z,0
2017-05-22T02:01:13.811Z,0
2017-05-22T02:02:27.429Z,0
2017-05-22T02:03:41.668Z,0
2017-05-22T02:04:55.593Z,0
2017-05-22T02:06:09.840Z,0
2017-05-22T02:07:23.407Z,0
2017-05-22T02:08:37.581Z,0
2017-05-22T02:09:51.212Z,0
2017-05-22T02:11:04.808Z,0
2017-05-22T02:12:19.090Z,0
2017-05-22T02:13:32.694Z,0
2017-05-22T02:14:46.316Z,0
2017-05-22T02:15:59.878Z,0
2017-05-22T02:17:13.437Z,0
2017-05-22T02:18:28.047Z,0
2017-05-22T02:19:41.960Z,0
2017-05-22T02:20:55.597Z,0
2017-05-22T02:22:09.573Z,0
2017-05-22T02:23:30.089Z,0
2017-05-22T02:24:44.693Z,0
2017-05-22T02:25:58.257Z,0
2017-05-22T02:27:11.974Z,0
2017-05-22T02:28:25.539Z,0
2017-05-22T02:29:39.450Z,0
2017-05-22T02:30:53.611Z,0
2017-05-22T02:32:07.482Z,0
2017-05-22T02:33:21.542Z,0
2017-05-22T02:34:35.788Z,0
2017-05-22T02:35:49.683Z,0
2017-05-22T02:37:03.882Z,0
2017-05-22T02:38:17.458Z,0
2017-05-22T02:39:31.248Z,0
2017-05-22T02:40:44.811Z,0
2017-05-22T02:41:58.468Z,0
2017-05-22T02:43:12.399Z,0
2017-05-22T02:44:26.006Z,0
2017-05-22T02:45:39.612Z,0
2017-05-22T02:46:53.545Z,0
2017-05-22T02:48:07.200Z,0
2017-05-22T02:49:21.454Z,0
2017-05-22T02:50:35.700Z,0
2017-05-22T02:51:49.226Z,0
2017-05-22T02:53:03.848Z,0
2017-05-22T02:54:17.756Z,0
2017-05-22T02:55:31.645Z,0
2017-05-22T02:56:45.478Z,0
2017-05-22T02:57:59.719Z,0
2017-05-22T02:59:13.689Z,0
2017-05-22T03:00:27.276Z,0
2017-05-22T03:01:41.291Z,0
2017-05-22T03:02:55.304Z,0
2017-05-22T03:04:08.949Z,0
2017-05-22T03:05:22.766Z,0
2017-05-22T03:06:36.378Z,0
2017-05-22T03:07:50.470Z,0
2017-05-22T03:09:04.468Z,0
2017-05-22T03:10:19.040Z,0
2017-05-22T03:11:33.316Z,0
2017-05-22T03:12:47.270Z,0
2017-05-22T03:14:01.643Z,0
2017-05-22T03:15:15.546Z,0
2017-05-22T03:16:29.101Z,0
2017-05-22T03:17:42.720Z,0
2017-05-22T03:18:56.402Z,0
2017-05-22T03:20:11.044Z,0
2017-05-22T03:21:24.936Z,0
2017-05-22T03:22:38.529Z,0
2017-05-22T03:23:52.758Z,0
2017-05-22T03:25:06.800Z,0
2017-05-22T03:26:21.034Z,0
2017-05-22T03:27:34.665Z,0
2017-05-22T03:28:48.375Z,0
2017-05-22T03:30:02.064Z,0
2017-05-22T03:31:15.745Z,0
2017-05-22T03:32:29.687Z,0
2017-05-22T03:33:43.299Z,0
2017-05-22T03:34:56.893Z,0
2017-05-22T03:36:10.493Z,0
2017-05-22T03:37:24.040Z,5
2017-05-22T03:38:37.990Z,5
2017-05-22T03:39:51.700Z,5
2017-05-22T03:41:05.367Z,5
2017-05-22T03:42:18.993Z,5
2017-05-22T03:43:32.881Z,5
2017-05-22T03:44:46.878Z,5
2017-05-22T03:46:01.255Z,10
2017-05-22T03:47:15.142Z,10
2017-05-22T03:48:28.729Z,10
2017-05-22T03:49:42.631Z,10
2017-05-22T03:50:56.529Z,10
2017-05-22T03:52:10.135Z,10
2017-05-22T03:53:24.388Z,15
2017-05-22T03:54:37.994Z,15
2017-05-22T03:55:51.918Z,15
2017-05-22T03:57:06.545Z,15
2017-05-22T03:58:20.441Z,15
2017-05-22T03:59:34.043Z,15
2017-05-22T04:00:47.778Z,15
2017-05-22T04:02:01.347Z,15
2017-05-22T04:03:15.261Z,15
2017-05-22T04:04:28.890Z,15
2017-05-22T04:05:43.203Z,20
2017-05-22T04:06:57.223Z,20
2017-05-22T04:08:11.186Z,25
2017-05-22T04:09:25.544Z,25
2017-05-22T04:10:39.492Z,30
2017-05-22T04:11:53.735Z,30
2017-05-22T04:13:07.335Z,35
2017-05-22T04:14:20.975Z,35
2017-05-22T04:15:34.845Z,40
2017-05-22T04:16:48.503Z,40
2017-05-22T04:18:02.374Z,40
2017-05-22T04:19:16.668Z,40
2017-05-22T04:20:30.637Z,40
2017-05-22T04:21:44.707Z,40
2017-05-22T04:22:58.971Z,45
2017-05-22T04:24:13.199Z,45
2017-05-22T04:25:28.997Z,45
2017-05-22T04:26:44.127Z,45
2017-05-22T04:28:00.103Z,45
2017-05-22T04:29:14.357Z,45
2017-05-22T04:30:28.106Z,45
2017-05-22T04:31:42.358Z,50
2017-05-22T04:32:56.923Z,50
2017-05-22T04:34:12.171Z,55
2017-05-22T04:35:25.853Z,55
2017-05-22T04:36:39.910Z,60
2017-05-22T04:37:53.882Z,60
2017-05-22T04:39:07.623Z,65
2017-05-22T04:40:21.853Z,65
2017-05-22T04:41:35.465Z,70
2017-05-22T04:42:49.041Z,70
2017-05-22T04:44:03.056Z,75
2017-05-22T04:45:16.701Z,75
2017-05-22T04:46:30.597Z,80
2017-05-22T04:47:44.231Z,80
2017-05-22T04:48:57.803Z,85
2017-05-22T04:50:11.431Z,90
2017-05-22T04:51:25.076Z,95
2017-05-22T04:52:39.031Z,100
2017-05-22T04:53:52.711Z,105
2017-05-22T04:55:06.679Z,105
2017-05-22T04:56:21.272Z,110
2017-05-22T04:57:34.903Z,115
2017-05-22T04:58:49.224Z,115
2017-05-22T05:00:03.448Z,115
2017-05-22T05:01:18.045Z,115
2017-05-22T05:02:32.603Z,120
2017-05-22T05:03:46.267Z,125
2017-05-22T05:05:00.766Z,125
2017-05-22T05:06:14.495Z,190
2017-05-22T05:07:28.455Z,330
2017-05-22T05:08:42.092Z,355
2017-05-22T05:09:55.745Z,375
2017-05-22T05:11:09.642Z,400
2017-05-22T05:12:23.273Z,430
2017-05-22T05:13:36.913Z,440
2017-05-22T05:14:50.558Z,450
2017-05-22T05:16:04.637Z,470
2017-05-22T05:17:18.565Z,480
2017-05-22T05:18:32.521Z,520
2017-05-22T05:19:46.166Z,525
2017-05-22T05:21:00.109Z,460
2017-05-22T05:22:14.156Z,475
2017-05-22T05:23:28.711Z,415
2017-05-22T05:24:42.679Z,265
2017-05-22T05:25:56.449Z,280
2017-05-22T05:27:10.097Z,285
2017-05-22T05:28:24.167Z,260
2017-05-22T05:29:38.050Z,250
2017-05-22T05:30:52.103Z,225
2017-05-22T05:32:06.014Z,205
2017-05-22T05:33:19.624Z,215
2017-05-22T05:34:33.269Z,195
2017-05-22T05:35:47.286Z,200
2017-05-22T05:37:00.899Z,210
2017-05-22T05:38:14.951Z,200
2017-05-22T05:39:29.663Z,195
2017-05-22T05:40:43.271Z,200
2017-05-22T05:41:57.295Z,205
2017-05-22T05:43:11.325Z,210
2017-05-22T05:44:25.683Z,210
2017-05-22T05:45:39.827Z,210
2017-05-22T05:46:53.439Z,215
2017-05-22T05:48:07.802Z,225
2017-05-22T05:49:21.874Z,235
2017-05-22T05:50:35.470Z,235
2017-05-22T05:51:49.596Z,235
2017-05-22T05:53:03.191Z,235
2017-05-22T05:54:17.122Z,260
2017-05-22T05:55:30.784Z,265
2017-05-22T05:56:44.774Z,275
2017-05-22T05:57:58.498Z,285
2017-05-22T05:59:12.553Z,295
2017-05-22T06:00:26.633Z,315
2017-05-22T06:01:41.040Z,330
2017-05-22T06:02:54.707Z,335
2017-05-22T06:04:08.477Z,340
2017-05-22T06:05:22.813Z,345
2017-05-22T06:06:37.130Z,330
2017-05-22T06:07:51.080Z,315
2017-05-22T06:09:04.850Z,300
2017-05-22T06:10:18.610Z,290
2017-05-22T06:11:32.948Z,280
2017-05-22T06:12:46.935Z,280
2017-05-22T06:14:00.722Z,285
2017-05-22T06:15:14.461Z,270
2017-05-22T06:16:28.149Z,265
2017-05-22T06:17:42.087Z,270
2017-05-22T06:18:56.256Z,275
2017-05-22T06:20:10.006Z,275
2017-05-22T06:21:23.667Z,280
2017-05-22T06:22:37.372Z,285
2017-05-22T06:23:51.708Z,285
2017-05-22T06:25:05.807Z,285
2017-05-22T06:26:19.827Z,290
2017-05-22T06:27:33.864Z,290
2017-05-22T06:28:48.005Z,290
2017-05-22T06:30:01.736Z,300
2017-05-22T06:31:16.208Z,305
2017-05-22T06:32:29.929Z,305
2017-05-22T06:33:44.103Z,320
2017-05-22T06:34:57.837Z,325
2017-05-22T06:36:12.220Z,330
2017-05-22T06:37:26.344Z,325
2017-05-22T06:38:40.035Z,325
2017-05-22T06:39:54.317Z,320
2017-05-22T06:41:08.276Z,330
2017-05-22T06:42:22.317Z,345
2017-05-22T06:43:36.358Z,340
2017-05-22T06:44:50.398Z,340
2017-05-22T06:46:04.413Z,335
2017-05-22T06:47:19.348Z,345
2017-05-22T06:48:33.019Z,350
2017-05-22T06:49:47.475Z,350
2017-05-22T06:51:01.430Z,355
2017-05-22T06:52:15.471Z,350
2017-05-22T06:53:30.249Z,350
2017-05-22T06:54:44.613Z,350
2017-05-22T06:55:59.345Z,350
2017-05-22T06:57:13.278Z,350
2017-05-22T06:58:27.366Z,340
2017-05-22T06:59:41.050Z,330
2017-05-22T07:00:55.050Z,315
2017-05-22T07:02:09.028Z,300
2017-05-22T07:03:23.057Z,290
2017-05-22T07:04:36.820Z,275
2017-05-22T07:05:50.520Z,265
2017-05-22T07:07:04.281Z,255
2017-05-22T07:08:18.974Z,260
2017-05-22T07:09:33.448Z,265
2017-05-22T07:10:47.330Z,280
2017-05-22T07:12:01.358Z,295
2017-05-22T07:13:14.984Z,310
2017-05-22T07:14:28.949Z,320
2017-05-22T07:15:43.462Z,345
2017-05-22T07:16:57.827Z,340
2017-05-22T07:18:11.442Z,340
2017-05-22T07:19:25.164Z,345
2017-05-22T07:20:39.597Z,340
2017-05-22T07:21:53.398Z,335
2017-05-22T07:23:07.419Z,345
2017-05-22T07:24:21.509Z,355
2017-05-22T07:25:35.546Z,360
2017-05-22T07:26:49.725Z,345
2017-05-22T07:28:03.358Z,335
2017-05-22T07:29:17.368Z,355
2017-05-22T07:30:31.021Z,360
2017-05-22T07:31:44.802Z,360
2017-05-22T07:32:59.197Z,355
2017-05-22T07:34:12.885Z,350
2017-05-22T07:35:26.845Z,345
2017-05-22T07:36:40.645Z,325
2017-05-22T07:37:54.572Z,315
2017-05-22T07:39:08.587Z,300
2017-05-22T07:40:22.650Z,290
2017-05-22T07:41:36.326Z,295
2017-05-22T07:42:50.373Z,290
2017-05-22T07:44:04.410Z,280
2017-05-22T07:45:18.541Z,270
2017-05-22T07:46:32.800Z,260
2017-05-22T07:47:47.082Z,260
2017-05-22T07:49:01.026Z,265
2017-05-22T07:50:14.974Z,275
2017-05-22T07:51:29.299Z,285
2017-05-22T07:52:43.191Z,285
2017-05-22T07:53:57.672Z,285
2017-05-22T07:55:12.779Z,280
2017-05-22T07:56:26.468Z,275
2017-05-22T07:57:40.394Z,275
2017-05-22T07:58:54.162Z,265
2017-05-22T08:00:07.907Z,250
2017-05-22T08:01:21.552Z,250
2017-05-22T08:02:36.152Z,270
2017-05-22T08:03:50.855Z,290
2017-05-22T08:05:07.035Z,310
2017-05-22T08:06:21.030Z,315
2017-05-22T08:07:34.748Z,325
2017-05-22T08:08:49.988Z,330
2017-05-22T08:10:03.922Z,325
2017-05-22T08:11:18.270Z,315
2017-05-22T08:12:32.306Z,320
2017-05-22T08:13:47.349Z,330
2017-05-22T08:15:01.485Z,335
2017-05-22T08:16:15.544Z,315
2017-05-22T08:17:30.256Z,295
2017-05-22T08:18:47.069Z,270
2017-05-22T08:20:01.233Z,255
2017-05-22T08:21:15.244Z,245
2017-05-22T08:22:29.756Z,235
2017-05-22T08:23:44.263Z,230
2017-05-22T08:24:58.115Z,230
2017-05-22T08:26:12.188Z,250
2017-05-22T08:27:25.773Z,265
2017-05-22T08:28:39.798Z,280
2017-05-22T08:29:54.092Z,285
2017-05-22T08:31:08.131Z,285
2017-05-22T08:32:22.132Z,285
2017-05-22T08:33:35.999Z,285
2017-05-22T08:34:51.128Z,285
2017-05-22T08:36:04.855Z,285
2017-05-22T08:37:19.751Z,275
2017-05-22T08:38:34.077Z,275
2017-05-22T08:39:47.787Z,270
2017-05-22T08:41:02.186Z,265
2017-05-22T08:42:17.339Z,260
2017-05-22T08:43:31.198Z,255
2017-05-22T08:44:45.320Z,250
2017-05-22T08:46:03.870Z,240
2017-05-22T08:47:20.329Z,240
2017-05-22T08:48:36.729Z,230
2017-05-22T08:49:56.665Z,225
2017-05-22T08:51:14.409Z,220
2017-05-22T08:52:31.990Z,215
2017-05-22T08:53:48.869Z,210
2017-05-22T08:55:05.747Z,200
2017-05-22T08:56:25.860Z,195
2017-05-22T08:57:41.944Z,195
2017-05-22T08:59:00.536Z,190
2017-05-22T09:00:19.270Z,190
2017-05-22T09:01:37.861Z,195
2017-05-22T09:02:52.841Z,200
2017-05-22T09:04:09.025Z,205
2017-05-22T09:05:29.321Z,215
2017-05-22T09:06:45.434Z,220
2017-05-22T09:07:59.983Z,225
2017-05-22T09:09:15.975Z,225
2017-05-22T09:10:30.013Z,230
2017-05-22T09:11:44.010Z,235
2017-05-22T09:12:58.540Z,240
2017-05-22T09:14:12.699Z,240
2017-05-22T09:15:27.001Z,245
2017-05-22T09:16:40.790Z,250
2017-05-22T09:17:54.778Z,255
2017-05-22T09:20:16.300Z,270
2017-05-22T09:21:31.451Z,280
2017-05-22T09:22:45.089Z,295
2017-05-22T09:23:59.384Z,295
2017-05-22T09:25:13.086Z,305
2017-05-22T09:26:26.796Z,310
2017-05-22T09:27:40.820Z,315
2017-05-22T09:29:01.093Z,315
2017-05-22T09:30:15.492Z,315
2017-05-22T09:31:29.212Z,315
2017-05-22T09:32:42.876Z,315
2017-05-22T09:33:57.059Z,315
2017-05-22T09:35:11.040Z,315
2017-05-22T09:36:25.525Z,320
2017-05-22T09:37:39.213Z,320
2017-05-22T09:38:53.167Z,320
2017-05-22T09:40:07.597Z,320
2017-05-22T09:41:22.433Z,320
2017-05-22T09:42:36.502Z,315
2017-05-22T09:43:50.529Z,315
2017-05-22T09:45:04.196Z,315
2017-05-22T09:46:17.954Z,320
2017-05-22T09:47:31.771Z,330
2017-05-22T09:48:45.777Z,340
2017-05-22T09:49:59.517Z,350
2017-05-22T09:51:14.993Z,355
2017-05-22T09:52:31.710Z,355
2017-05-22T09:53:45.383Z,360
2017-05-22T09:54:59.349Z,365
2017-05-22T09:56:13.349Z,370
2017-05-22T09:57:27.343Z,380
2017-05-22T09:58:40.982Z,385
2017-05-22T09:59:55.576Z,390
2017-05-22T10:01:10.153Z,385
2017-05-22T10:02:24.163Z,390
2017-05-22T10:03:37.824Z,385
2017-05-22T10:04:51.840Z,385
2017-05-22T10:06:05.831Z,370
2017-05-22T10:07:20.272Z,360
2017-05-22T10:08:33.889Z,340
2017-05-22T10:09:47.652Z,325
2017-05-22T10:11:01.257Z,315
2017-05-22T10:12:15.275Z,310
2017-05-22T10:13:29.660Z,300
2017-05-22T10:14:43.682Z,280
2017-05-22T10:15:57.666Z,255
2017-05-22T10:17:11.388Z,240
2017-05-22T10:18:25.022Z,230
2017-05-22T10:19:38.907Z,220
2017-05-22T10:20:52.681Z,215
2017-05-22T10:22:06.359Z,215
2017-05-22T10:23:23.317Z,220
2017-05-22T10:24:36.882Z,210
2017-05-22T10:25:50.622Z,205
2017-05-22T10:27:04.622Z,195
2017-05-22T10:28:18.626Z,190
2017-05-22T10:29:32.309Z,185
2017-05-22T10:30:46.954Z,180
2017-05-22T10:32:00.589Z,175
2017-05-22T10:33:14.261Z,170
2017-05-22T10:34:27.971Z,170
2017-05-22T10:35:41.873Z,165
2017-05-22T10:36:55.566Z,165
2017-05-22T10:38:09.236Z,165
2017-05-22T10:39:23.185Z,160
2017-05-22T10:40:37.201Z,160
2017-05-22T10:41:51.177Z,160
2017-05-22T10:43:05.245Z,160
2017-05-22T10:44:19.182Z,160
2017-05-22T10:45:33.148Z,155
2017-05-22T10:46:46.774Z,155
2017-05-22T10:48:00.547Z,155
2017-05-22T10:49:14.930Z,155
2017-05-22T10:50:29.305Z,155
2017-05-22T10:51:42.889Z,155
2017-05-22T10:52:56.833Z,155
2017-05-22T10:54:10.891Z,155
2017-05-22T10:55:25.105Z,155
2017-05-22T10:56:39.069Z,150
2017-05-22T10:57:53.540Z,150
2017-05-22T10:59:07.402Z,150
2017-05-22T11:00:21.389Z,150
2017-05-22T11:01:35.493Z,150
2017-05-22T11:02:49.885Z,150
2017-05-22T11:04:03.557Z,150
2017-05-22T11:05:17.237Z,150
2017-05-22T11:06:30.825Z,150
2017-05-22T11:07:45.128Z,150
2017-05-22T11:08:58.910Z,150
2017-05-22T11:10:12.608Z,150
2017-05-22T11:11:26.360Z,150
2017-05-22T11:12:40.026Z,155
2017-05-22T11:13:54.306Z,150
2017-05-22T11:15:08.132Z,145
2017-05-22T11:16:23.493Z,150
2017-05-22T11:17:37.404Z,140
2017-05-22T11:18:51.436Z,140
2017-05-22T11:20:05.777Z,150
2017-05-22T11:21:19.879Z,145
2017-05-22T11:22:33.593Z,150
2017-05-22T11:23:47.183Z,150
2017-05-22T11:25:00.904Z,150
2017-05-22T11:26:14.916Z,145
2017-05-22T11:27:28.768Z,135
2017-05-22T11:28:42.859Z,130
2017-05-22T11:29:56.563Z,135
2017-05-22T11:31:25.039Z,145
2017-05-22T11:32:39.048Z,150
2017-05-22T11:33:52.798Z,155
2017-05-22T11:35:06.418Z,170
2017-05-22T11:36:20.796Z,180
2017-05-22T11:37:34.495Z,190
2017-05-22T11:38:48.797Z,200
2017-05-22T11:40:02.670Z,205
2017-05-22T11:41:17.542Z,210
2017-05-22T11:42:31.277Z,225
2017-05-22T11:43:45.087Z,220
2017-05-22T11:44:59.048Z,210
2017-05-22T11:46:13.284Z,195
2017-05-22T11:47:27.426Z,185
2017-05-22T11:48:41.139Z,175
2017-05-22T11:49:54.745Z,160
2017-05-22T11:51:08.758Z,155
2017-05-22T11:52:22.437Z,155
2017-05-22T11:53:36.154Z,155
2017-05-22T11:54:50.124Z,160
2017-05-22T11:56:03.839Z,155
2017-05-22T11:57:17.920Z,155
2017-05-22T11:58:31.647Z,145
2017-05-22T11:59:45.335Z,145
2017-05-22T12:01:00.083Z,155
2017-05-22T12:02:15.219Z,165
2017-05-22T12:03:30.211Z,160
2017-05-22T12:04:44.878Z,165
2017-05-22T12:05:58.865Z,165
2017-05-22T12:07:12.900Z,165
2017-05-22T12:08:27.522Z,165
2017-05-22T12:09:41.628Z,165
2017-05-22T12:10:55.364Z,165
2017-05-22T12:12:09.071Z,175
2017-05-22T12:13:23.111Z,170
2017-05-22T12:14:37.169Z,170
2017-05-22T12:15:51.158Z,170
2017-05-22T12:17:05.439Z,175
2017-05-22T12:18:20.156Z,180
2017-05-22T12:19:34.222Z,185
2017-05-22T12:20:48.566Z,190
2017-05-22T12:22:03.284Z,185
2017-05-22T12:23:17.211Z,180
2017-05-22T12:24:31.171Z,180
2017-05-22T12:25:45.381Z,190
2017-05-22T12:26:59.102Z,180
2017-05-22T12:28:13.339Z,180
2017-05-22T12:29:27.271Z,180
2017-05-22T12:30:41.563Z,185
2017-05-22T12:31:55.911Z,190
2017-05-22T12:33:09.904Z,185
2017-05-22T12:34:23.926Z,185
2017-05-22T12:35:37.512Z,185
2017-05-22T12:36:52.327Z,185
2017-05-22T12:38:06.011Z,180
2017-05-22T12:39:20.031Z,175
2017-05-22T12:40:35.024Z,175
2017-05-22T12:41:48.667Z,170
2017-05-22T12:43:02.328Z,170
2017-05-22T12:44:15.942Z,170
2017-05-22T12:45:29.588Z,175
2017-05-22T12:46:43.799Z,180
2017-05-22T12:47:57.830Z,190
2017-05-22T12:49:11.650Z,195
2017-05-22T12:50:25.331Z,200
2017-05-22T12:51:39.362Z,195
2017-05-22T12:52:53.728Z,195
2017-05-22T12:54:07.576Z,195
2017-05-22T12:55:21.330Z,195
2017-05-22T12:56:35.265Z,195
2017-05-22T12:57:49.013Z,185
2017-05-22T12:59:03.317Z,190
2017-05-22T13:00:18.359Z,195
2017-05-22T13:01:32.479Z,185
2017-05-22T13:02:46.269Z,180
2017-05-22T13:04:00.038Z,180
2017-05-22T13:05:14.085Z,180
2017-05-22T13:06:27.721Z,185
2017-05-22T13:07:41.865Z,190
2017-05-22T13:08:55.807Z,190
2017-05-22T13:10:09.645Z,190
2017-05-22T13:11:23.713Z,195
2017-05-22T13:12:37.418Z,205
2017-05-22T13:13:51.126Z,205
2017-05-22T13:15:04.822Z,205
2017-05-22T13:16:18.822Z,205
2017-05-22T13:17:32.837Z,200
2017-05-22T13:18:46.716Z,190
2017-05-22T13:20:00.839Z,185
2017-05-22T13:21:15.116Z,195
2017-05-22T13:22:28.767Z,195
2017-05-22T13:23:49.069Z,205
2017-05-22T13:25:03.043Z,200
2017-05-22T13:26:17.443Z,205
2017-05-22T13:27:32.206Z,210
2017-05-22T13:28:46.306Z,215
2017-05-22T13:30:00.573Z,215
2017-05-22T13:31:14.266Z,215
2017-05-22T13:32:28.331Z,215
2017-05-22T13:33:42.407Z,210
2017-05-22T13:34:56.486Z,205
2017-05-22T13:36:10.809Z,200
2017-05-22T13:37:24.540Z,190
2017-05-22T13:38:38.254Z,195
2017-05-22T13:39:51.914Z,200
2017-05-22T13:41:06.285Z,210
2017-05-22T13:42:20.423Z,215
2017-05-22T13:43:34.473Z,215
2017-05-22T13:44:48.224Z,220
2017-05-22T13:46:01.823Z,220
2017-05-22T13:47:15.593Z,215
2017-05-22T13:48:29.510Z,210
2017-05-22T13:49:43.203Z,200
2017-05-22T13:50:56.775Z,195
2017-05-22T13:52:10.773Z,190
2017-05-22T13:53:24.841Z,185
2017-05-22T13:54:38.888Z,180
2017-05-22T13:55:53.320Z,180
2017-05-22T13:57:07.319Z,175
2017-05-22T13:58:21.764Z,165
2017-05-22T13:59:35.904Z,155
2017-05-22T14:00:50.384Z,155
2017-05-22T14:02:05.078Z,150
2017-05-22T14:03:18.780Z,145
2017-05-22T14:04:32.456Z,145
2017-05-22T14:05:46.560Z,150
2017-05-22T14:07:00.950Z,155
2017-05-22T14:08:15.019Z,165
2017-05-22T14:09:29.010Z,170
2017-05-22T14:10:42.681Z,175
2017-05-22T14:11:56.353Z,180
2017-05-22T14:13:10.666Z,190
2017-05-22T14:14:24.690Z,195
2017-05-22T14:15:39.473Z,200
2017-05-22T14:16:53.499Z,200
2017-05-22T14:18:07.470Z,205
2017-05-22T14:19:21.698Z,205
2017-05-22T14:20:35.797Z,205
2017-05-22T14:21:49.462Z,205
2017-05-22T14:23:03.421Z,210
2017-05-22T14:24:17.735Z,210
2017-05-22T14:25:31.684Z,210
2017-05-22T14:26:46.236Z,215
2017-05-22T14:28:00.667Z,220
2017-05-22T14:29:15.008Z,210
2017-05-22T14:30:29.062Z,205
2017-05-22T14:31:43.509Z,200
2017-05-22T14:32:57.138Z,195
2017-05-22T14:34:11.250Z,185
2017-05-22T14:35:25.359Z,185
2017-05-22T14:36:39.284Z,195
2017-05-22T14:37:53.256Z,195
2017-05-22T14:39:07.710Z,195
2017-05-22T14:40:21.511Z,190
2017-05-22T14:41:35.168Z,185
2017-05-22T14:44:25.163Z,180
2017-05-22T14:45:40.550Z,180
2017-05-22T14:46:59.181Z,180
2017-05-22T14:48:14.001Z,175
2017-05-22T14:49:28.272Z,175
2017-05-22T14:50:44.370Z,175
2017-05-22T14:51:59.869Z,180
2017-05-22T14:53:15.514Z,180
2017-05-22T14:54:31.364Z,180
2017-05-22T14:55:48.636Z,175
2017-05-22T14:57:05.110Z,175
2017-05-22T14:58:24.436Z,175
2017-05-22T14:59:43.832Z,175
2017-05-22T15:01:01.632Z,180
2017-05-22T15:02:17.772Z,185
2017-05-22T15:03:31.509Z,185
2017-05-22T15:04:46.297Z,190
2017-05-22T15:05:59.909Z,190
2017-05-22T15:07:16.667Z,185
2017-05-22T15:08:31.078Z,185
2017-05-22T15:09:45.466Z,185
2017-05-22T15:10:59.141Z,180
2017-05-22T15:12:13.883Z,175
2017-05-22T15:13:28.194Z,170
2017-05-22T15:14:45.426Z,175
2017-05-22T15:15:59.801Z,175
2017-05-22T15:17:13.520Z,180
2017-05-22T15:18:27.555Z,180
2017-05-22T15:19:41.857Z,185
2017-05-22T15:20:56.113Z,185
2017-05-22T15:22:10.709Z,185
2017-05-22T15:23:25.385Z,185
2017-05-22T15:24:39.089Z,190
2017-05-22T15:25:52.841Z,185
2017-05-22T15:27:06.877Z,180
2017-05-22T15:28:20.859Z,175
2017-05-22T15:29:34.898Z,170
2017-05-22T15:30:49.001Z,170
2017-05-22T15:32:03.879Z,165
2017-05-22T15:33:18.069Z,165
2017-05-22T15:34:31.868Z,165
2017-05-22T15:35:45.860Z,165
2017-05-22T15:36:59.633Z,160
2017-05-22T15:38:13.346Z,155
2017-05-22T15:39:27.366Z,145
2017-05-22T15:40:41.117Z,140
2017-05-22T15:41:55.369Z,135
2017-05-22T15:43:09.465Z,135
2017-05-22T15:44:23.411Z,135
2017-05-22T15:45:37.417Z,130
2017-05-22T15:46:51.539Z,130
2017-05-22T15:48:05.309Z,125
2017-05-22T15:49:19.349Z,120
2017-05-22T15:50:33.703Z,120
2017-05-22T15:51:47.674Z,115
2017-05-22T15:53:01.283Z,115
2017-05-22T15:54:15.291Z,115
2017-05-22T15:55:29.006Z,120
2017-05-22T15:56:42.714Z,115
2017-05-22T15:57:56.650Z,120
2017-05-22T15:59:10.640Z,115
2017-05-22T16:00:24.281Z,110
2017-05-22T16:01:38.646Z,110
2017-05-22T16:02:53.376Z,110
2017-05-22T16:04:07.341Z,110
2017-05-22T16:05:20.984Z,110
2017-05-22T16:06:34.986Z,110
2017-05-22T16:07:48.990Z,110
2017-05-22T16:09:03.363Z,110
2017-05-22T16:10:17.316Z,110
2017-05-22T16:11:31.073Z,110
2017-05-22T16:12:45.237Z,105
2017-05-22T16:13:59.584Z,105
2017-05-22T16:15:13.607Z,105
2017-05-22T16:16:28.022Z,105
2017-05-22T16:17:42.388Z,105
2017-05-22T16:18:56.514Z,105
2017-05-22T16:20:17.051Z,105
2017-05-22T16:21:44.269Z,110
2017-05-22T16:23:06.282Z,110
2017-05-22T16:24:30.207Z,110
2017-05-22T16:25:55.041Z,110
2017-05-22T16:27:19.177Z,105
2017-05-22T16:28:44.404Z,110
2017-05-22T16:30:08.115Z,110
2017-05-22T16:31:30.865Z,110
2017-05-22T16:32:53.745Z,110
2017-05-22T16:34:17.088Z,115
2017-05-22T16:35:38.160Z,115
2017-05-22T16:36:55.152Z,110
2017-05-22T16:38:22.593Z,110
2017-05-22T16:39:46.598Z,105
2017-05-22T16:41:12.754Z,105
2017-05-22T16:42:36.170Z,105
2017-05-22T16:44:01.897Z,105
2017-05-22T16:45:24.368Z,100
2017-05-22T16:46:46.919Z,100
2017-05-22T16:48:00.658Z,100
2017-05-22T16:49:15.008Z,100
2017-05-22T16:50:29.432Z,105
2017-05-22T16:51:43.070Z,100
2017-05-22T16:52:56.854Z,100
2017-05-22T16:54:10.519Z,100
2017-05-22T16:55:24.519Z,100
2017-05-22T16:56:38.399Z,95
2017-05-22T16:57:52.294Z,95
2017-05-22T16:59:05.935Z,95
2017-05-22T17:00:19.819Z,95
2017-05-22T17:01:34.103Z,95
2017-05-22T17:02:48.356Z,95
2017-05-22T17:04:02.128Z,95
2017-05-22T17:05:15.976Z,100
2017-05-22T17:06:30.227Z,105
2017-05-22T17:07:44.180Z,110
2017-05-22T17:08:57.943Z,110
2017-05-22T17:10:11.861Z,105
2017-05-22T17:11:25.962Z,100
2017-05-22T17:12:39.875Z,95
2017-05-22T17:13:53.603Z,90
2017-05-22T17:15:07.222Z,90
2017-05-22T17:16:20.808Z,85
2017-05-22T17:17:35.082Z,85
2017-05-22T17:18:49.384Z,85
2017-05-22T17:20:03.995Z,85
2017-05-22T17:21:17.622Z,80
2017-05-22T17:22:31.550Z,75
2017-05-22T17:23:45.540Z,75
2017-05-22T17:24:59.858Z,70
2017-05-22T17:26:13.496Z,70